Time;durP1;ratioP1;P1;durP2;ratioP2;P2;SDS_P1;SDS_P2;PMS_P1;PMS_P2;Temp;Humidity;BMP_temperature;BMP_pressure;BME280_temperature;BME280_humidity;BME280_pressure;Samples;Min_cycle;Max_cycle;Signal;HPM_P1;HPM_P2
2023/10/06 00:01:00;;;;;;;11.77;3.50;;;;;;;;;;5075572;28;20187;-89
2023/10/06 00:03:25;;;;;;;11.00;3.53;;;;;;;;;;5057633;28;20032;-90
2023/10/06 00:05:55;;;;;;;10.50;3.30;;;;;;;;;;5057402;28;20021;-89
2023/10/06 00:08:21;;;;;;;9.40;3.17;;;;;;;;;;5059370;28;20460;-88
2023/10/06 00:10:50;;;;;;;8.18;3.03;;;;;;;;;;5058721;28;20056;-89
2023/10/06 00:13:19;;;;;;;6.70;3.50;;;;;;;;;;5058823;28;20024;-88
2023/10/06 00:15:45;;;;;;;6.57;3.15;;;;;;;;;;5058466;28;20028;-89
2023/10/06 00:18:23;;;;;;;15.18;2.97;;;;;;;;;;5058794;28;20464;-89
2023/10/06 00:20:56;;;;;;;12.57;3.30;;;;;;;;;;5057994;28;20060;-89
2023/10/06 00:23:21;;;;;;;;;;;;;;;;;;5057737;28;20115;-89
2023/10/06 00:25:51;;;;;;;7.68;2.90;;;;;;;;;;5076659;28;20400;-89
2023/10/06 00:28:19;;;;;;;9.38;2.80;;;;;;;;;;5059082;28;20043;-89
2023/10/06 00:30:48;;;;;;;7.32;2.70;;;;;;;;;;5096367;28;20390;-88
2023/10/06 00:33:15;;;;;;;7.25;2.95;;;;;;;;;;5056999;28;20144;-89
2023/10/06 00:35:41;;;;;;;6.00;2.72;;;;;;;;;;5060049;28;20055;-89
2023/10/06 00:38:12;;;;;;;6.22;2.35;;;;;;;;;;5057408;28;20480;-89
2023/10/06 00:40:40;;;;;;;7.30;2.38;;;;;;;;;;5057610;28;20017;-89
2023/10/06 00:43:08;;;;;;;7.72;2.83;;;;;;;;;;5074826;28;20139;-89
2023/10/06 00:45:39;;;;;;;8.48;2.50;;;;;;;;;;5055572;28;20028;-89
2023/10/06 00:48:10;;;;;;;7.15;2.53;;;;;;;;;;5056077;28;20033;-89
2023/10/06 00:50:36;;;;;;;12.30;3.10;;;;;;;;;;5057251;28;20074;-89
2023/10/06 00:53:04;;;;;;;8.50;3.00;;;;;;;;;;5057734;28;20032;-88
2023/10/06 00:55:30;;;;;;;5.85;2.85;;;;;;;;;;5056135;28;20028;-88
2023/10/06 00:57:55;;;;;;;5.50;2.53;;;;;;;;;;5055808;28;20369;-88
2023/10/06 01:00:21;;;;;;;9.65;2.70;;;;;;;;;;5074438;28;20047;-88
2023/10/06 01:02:47;;;;;;;6.05;2.40;;;;;;;;;;5056301;28;20025;-89
2023/10/06 01:05:15;;;;;;;7.78;2.50;;;;;;;;;;5054486;28;20032;-89
2023/10/06 01:07:41;;;;;;;4.88;2.33;;;;;;;;;;5088298;28;20099;-88
2023/10/06 01:10:14;;;;;;;7.72;3.00;;;;;;;;;;5056167;28;20020;-89
2023/10/06 01:12:40;;;;;;;6.30;2.55;;;;;;;;;;5055868;28;20048;-89
2023/10/06 01:15:16;;;;;;;9.90;2.55;;;;;;;;;;5057641;28;20025;-88
2023/10/06 01:17:41;;;;;;;11.10;2.88;;;;;;;;;;5056889;28;20024;-88
2023/10/06 01:20:10;;;;;;;7.82;2.72;;;;;;;;;;5056815;28;20249;-87
2023/10/06 01:22:41;;;;;;;10.63;2.47;;;;;;;;;;5057026;28;20020;-87
2023/10/06 01:25:20;;;;;;;6.10;2.45;;;;;;;;;;5048529;28;20060;-88
2023/10/06 01:27:46;;;;;;;9.48;3.08;;;;;;;;;;5090271;28;20409;-89
2023/10/06 01:30:17;;;;;;;5.57;2.42;;;;;;;;;;5045780;28;20023;-88
2023/10/06 01:32:49;;;;;;;7.72;2.30;;;;;;;;;;5057981;28;20048;-88
2023/10/06 01:35:23;;;;;;;6.00;2.70;;;;;;;;;;5059553;28;20031;-89
2023/10/06 01:37:51;;;;;;;6.50;2.45;;;;;;;;;;5059775;28;20020;-88
2023/10/06 01:42:54;;;;;;;9.65;2.97;;;;;;;;;;5075079;28;20046;-88
2023/10/06 01:45:21;;;;;;;6.97;2.25;;;;;;;;;;5074292;28;20027;-88
2023/10/06 01:48:00;;;;;;;8.05;2.55;;;;;;;;;;5056662;28;20024;-89
2023/10/06 01:50:28;;;;;;;3.90;2.05;;;;;;;;;;5054722;28;20074;-88
2023/10/06 01:52:55;;;;;;;6.20;2.10;;;;;;;;;;5073382;28;20012;-88
2023/10/06 01:55:23;;;;;;;6.40;2.92;;;;;;;;;;5048616;28;20108;-88
2023/10/06 01:57:49;;;;;;;12.38;2.80;;;;;;;;;;5055325;28;20036;-88
2023/10/06 02:00:16;;;;;;;10.55;2.72;;;;;;;;;;5056394;28;20025;-88
2023/10/06 02:02:41;;;;;;;5.53;2.30;;;;;;;;;;5055951;28;20067;-88
2023/10/06 02:05:12;;;;;;;9.60;2.88;;;;;;;;;;5052634;28;20020;-88
2023/10/06 02:07:39;;;;;;;8.05;2.50;;;;;;;;;;5054529;28;20040;-88
2023/10/06 02:10:11;;;;;;;7.13;2.78;;;;;;;;;;5089146;28;20115;-88
2023/10/06 02:12:37;;;;;;;6.60;2.53;;;;;;;;;;5055501;28;20032;-88
2023/10/06 02:15:10;;;;;;;8.65;2.42;;;;;;;;;;5054997;28;20028;-87
2023/10/06 02:17:36;;;;;;;7.57;2.55;;;;;;;;;;5058113;28;20016;-87
2023/10/06 02:20:01;;;;;;;8.00;2.80;;;;;;;;;;5060377;28;20363;-87
2023/10/06 02:22:27;;;;;;;9.10;2.42;;;;;;;;;;5061694;28;20016;-89
2023/10/06 02:24:52;;;;;;;8.98;2.90;;;;;;;;;;5057735;28;20455;-89
2023/10/06 02:27:18;;;;;;;6.50;2.75;;;;;;;;;;5049760;28;20042;-88
2023/10/06 02:29:43;;;;;;;5.05;2.20;;;;;;;;;;5059293;28;20051;-88
2023/10/06 02:32:09;;;;;;;7.75;2.55;;;;;;;;;;5059695;28;20103;-88
2023/10/06 02:34:38;;;;;;;10.52;2.33;;;;;;;;;;5093997;28;20103;-88
2023/10/06 02:37:06;;;;;;;6.93;2.42;;;;;;;;;;5048397;28;20055;-89
2023/10/06 02:39:37;;;;;;;8.13;2.08;;;;;;;;;;5060769;28;20077;-88
2023/10/06 02:42:12;;;;;;;8.10;2.50;;;;;;;;;;5058872;28;20467;-88
2023/10/06 02:44:38;;;;;;;6.47;2.40;;;;;;;;;;5060220;28;20062;-87
2023/10/06 02:47:11;;;;;;;14.32;2.65;;;;;;;;;;5077376;28;20416;-88
2023/10/06 02:49:38;;;;;;;12.85;2.72;;;;;;;;;;5059565;28;20375;-87
2023/10/06 02:52:20;;;;;;;4.82;2.42;;;;;;;;;;5059764;28;20040;-87
2023/10/06 02:55:19;;;;;;;7.85;2.38;;;;;;;;;;5058444;28;20024;-87
2023/10/06 02:57:41;;;;;;;8.27;2.83;;;;;;;;;;5073665;28;20090;-88
2023/10/06 03:03:02;;;;;;;9.00;2.13;;;;;;;;;;5076846;28;20027;-88
2023/10/06 03:05:38;;;;;;;8.30;2.15;;;;;;;;;;5058298;28;20029;-86
2023/10/06 03:08:08;;;;;;;6.22;2.13;;;;;;;;;;5059324;28;20034;-88
2023/10/06 03:10:55;;;;;;;7.28;2.30;;;;;;;;;;5058808;28;20017;-88
2023/10/06 03:13:36;;;;;;;7.05;2.33;;;;;;;;;;5058501;28;20025;-87
2023/10/06 03:16:10;;;;;;;7.82;2.53;;;;;;;;;;5057968;28;20028;-88
2023/10/06 03:18:38;;;;;;;11.40;2.90;;;;;;;;;;5058409;28;20123;-88
2023/10/06 03:23:38;;;;;;;11.65;2.65;;;;;;;;;;5076413;28;20025;-88
2023/10/06 03:26:04;;;;;;;7.00;2.08;;;;;;;;;;5058396;28;20115;-88
2023/10/06 03:28:33;;;;;;;5.38;1.90;;;;;;;;;;5075536;28;20464;-87
2023/10/06 03:31:04;;;;;;;10.60;2.80;;;;;;;;;;5060483;28;20077;-87
2023/10/06 03:33:31;;;;;;;4.53;2.10;;;;;;;;;;5058713;28;20024;-88
2023/10/06 03:35:57;;;;;;;8.45;2.50;;;;;;;;;;5058412;28;20020;-89
2023/10/06 03:46:09;;;;;;;9.95;1.88;;;;;;;;;;5080159;28;20380;-88
2023/10/06 03:48:39;;;;;;;6.03;1.95;;;;;;;;;;5064280;28;20041;-88
2023/10/06 03:51:05;;;;;;;4.80;1.80;;;;;;;;;;5082211;28;20032;-88
2023/10/06 03:53:31;;;;;;;7.03;2.15;;;;;;;;;;5059667;28;20021;-88
2023/10/06 03:55:57;;;;;;;7.18;2.28;;;;;;;;;;5057209;28;20437;-88
2023/10/06 03:58:28;;;;;;;6.50;2.03;;;;;;;;;;5059064;28;20059;-88
2023/10/06 04:00:53;;;;;;;9.50;1.98;;;;;;;;;;5058121;28;20021;-88
2023/10/06 04:03:21;;;;;;;5.22;2.03;;;;;;;;;;5092022;28;20027;-88
2023/10/06 04:05:50;;;;;;;9.05;2.50;;;;;;;;;;5057780;28;20028;-88
2023/10/06 04:08:16;;;;;;;7.45;2.33;;;;;;;;;;5075553;28;20031;-88
2023/10/06 04:10:44;;;;;;;7.07;2.13;;;;;;;;;;5057378;28;20047;-88
2023/10/06 04:13:10;;;;;;;10.93;2.55;;;;;;;;;;5075695;28;20103;-88
2023/10/06 04:15:39;;;;;;;8.98;2.22;;;;;;;;;;5057083;28;20325;-88
2023/10/06 04:18:11;;;;;;;9.30;2.42;;;;;;;;;;5090447;28;20384;-88
2023/10/06 04:20:40;;;;;;;5.23;2.03;;;;;;;;;;5056734;28;20499;-88
2023/10/06 04:23:07;;;;;;;6.93;2.47;;;;;;;;;;5056939;28;20794;-88
2023/10/06 04:25:37;;;;;;;6.18;2.17;;;;;;;;;;5056743;28;20115;-88
2023/10/06 04:28:03;;;;;;;14.00;2.75;;;;;;;;;;5057233;28;20082;-88
2023/10/06 04:30:29;;;;;;;5.03;2.08;;;;;;;;;;5056707;28;20036;-88
2023/10/06 04:32:55;;;;;;;4.82;2.05;;;;;;;;;;5056857;28;20495;-88
2023/10/06 04:35:24;;;;;;;8.25;2.35;;;;;;;;;;5057209;28;20016;-88
2023/10/06 04:37:50;;;;;;;6.18;2.45;;;;;;;;;;5075608;28;20024;-89
2023/10/06 04:40:20;;;;;;;6.45;2.05;;;;;;;;;;5074669;28;20052;-88
2023/10/06 04:42:46;;;;;;;6.95;1.83;;;;;;;;;;5057193;28;20035;-88
2023/10/06 04:45:14;;;;;;;8.13;2.40;;;;;;;;;;5057183;28;20016;-88
2023/10/06 04:47:43;;;;;;;6.55;2.35;;;;;;;;;;5058536;28;20456;-88
2023/10/06 04:50:12;;;;;;;5.47;2.25;;;;;;;;;;5058904;28;20072;-88
2023/10/06 04:52:42;;;;;;;10.25;2.10;;;;;;;;;;5059308;28;20116;-88
2023/10/06 04:55:12;;;;;;;8.35;2.45;;;;;;;;;;5080686;28;20047;-88
2023/10/06 04:57:38;;;;;;;9.23;2.10;;;;;;;;;;5061573;28;20028;-88
2023/10/06 05:00:06;;;;;;;8.25;2.10;;;;;;;;;;5058269;28;20073;-88
2023/10/06 05:02:34;;;;;;;7.30;2.10;;;;;;;;;;5057208;28;20031;-88
2023/10/06 05:05:00;;;;;;;9.75;2.28;;;;;;;;;;5057045;28;20073;-88
2023/10/06 05:07:25;;;;;;;9.98;2.30;;;;;;;;;;5056100;28;20032;-88
2023/10/06 05:09:52;;;;;;;5.32;2.15;;;;;;;;;;5085095;28;20044;-88
2023/10/06 05:12:18;;;;;;;7.30;2.45;;;;;;;;;;5057591;28;20036;-88
2023/10/06 05:14:45;;;;;;;8.27;2.65;;;;;;;;;;5074445;28;20043;-88
2023/10/06 05:17:16;;;;;;;4.95;2.08;;;;;;;;;;5055922;28;20369;-88
2023/10/06 05:19:41;;;;;;;7.88;2.78;;;;;;;;;;5055988;28;20407;-88
2023/10/06 05:22:07;;;;;;;9.05;2.63;;;;;;;;;;5056475;28;20151;-88
2023/10/06 05:24:32;;;;;;;6.93;2.25;;;;;;;;;;5074682;28;20020;-87
2023/10/06 05:26:57;;;;;;;7.18;2.70;;;;;;;;;;5056284;28;20032;-88
2023/10/06 05:29:25;;;;;;;9.18;2.67;;;;;;;;;;5055883;28;20024;-88
2023/10/06 05:31:50;;;;;;;8.70;3.08;;;;;;;;;;5055432;28;20025;-88
2023/10/06 05:34:17;;;;;;;7.85;2.50;;;;;;;;;;5055078;28;20174;-88
2023/10/06 05:36:42;;;;;;;9.55;2.70;;;;;;;;;;5054275;28;20024;-88
2023/10/06 05:39:11;;;;;;;9.32;2.35;;;;;;;;;;5055458;28;20468;-88
2023/10/06 05:41:37;;;;;;;7.00;2.25;;;;;;;;;;5055327;28;20074;-88
2023/10/06 05:44:02;;;;;;;10.82;2.85;;;;;;;;;;5055959;28;20024;-89
2023/10/06 05:46:30;;;;;;;5.63;2.78;;;;;;;;;;5057139;28;20482;-88
2023/10/06 05:48:59;;;;;;;9.45;2.20;;;;;;;;;;5056276;28;20096;-88
2023/10/06 05:51:24;;;;;;;6.20;2.30;;;;;;;;;;5056368;28;20438;-88
2023/10/06 05:53:51;;;;;;;6.85;2.08;;;;;;;;;;5062839;28;20067;-88
2023/10/06 05:56:19;;;;;;;8.13;2.70;;;;;;;;;;5060649;28;20028;-88
2023/10/06 05:58:45;;;;;;;8.73;3.15;;;;;;;;;;5080031;28;20035;-88
2023/10/06 06:01:12;;;;;;;11.00;3.13;;;;;;;;;;5061933;28;20021;-88
2023/10/06 06:03:47;;;;;;;11.07;2.80;;;;;;;;;;5060317;28;20059;-87
2023/10/06 06:06:15;;;;;;;9.50;2.67;;;;;;;;;;5075531;28;20058;-87
2023/10/06 06:08:43;;;;;;;11.25;2.42;;;;;;;;;;5059166;28;20024;-87
2023/10/06 06:11:09;;;;;;;7.63;2.78;;;;;;;;;;5076100;28;20020;-87
2023/10/06 06:13:38;;;;;;;6.57;2.25;;;;;;;;;;5059367;28;20031;-87
2023/10/06 06:16:05;;;;;;;11.27;2.47;;;;;;;;;;5059145;28;20025;-87
2023/10/06 06:18:30;;;;;;;11.88;3.28;;;;;;;;;;5059291;28;20016;-87
2023/10/06 06:20:56;;;;;;;11.73;2.92;;;;;;;;;;5058559;28;20088;-87
2023/10/06 06:23:21;;;;;;;9.50;2.38;;;;;;;;;;5058572;28;20009;-87
2023/10/06 06:25:46;;;;;;;5.90;2.38;;;;;;;;;;5058693;28;20054;-87
2023/10/06 06:28:12;;;;;;;6.57;2.00;;;;;;;;;;5058776;28;20016;-87
2023/10/06 06:30:40;;;;;;;8.02;2.50;;;;;;;;;;5091975;28;20032;-87
2023/10/06 06:33:08;;;;;;;8.90;2.20;;;;;;;;;;5058787;28;20016;-87
2023/10/06 06:35:35;;;;;;;4.63;2.33;;;;;;;;;;5057035;28;20042;-87
2023/10/06 06:38:01;;;;;;;7.18;2.30;;;;;;;;;;5058236;28;20422;-87
2023/10/06 06:40:29;;;;;;;9.00;2.60;;;;;;;;;;5058413;28;20017;-86
2023/10/06 06:42:58;;;;;;;8.50;2.65;;;;;;;;;;5058784;28;20529;-86
2023/10/06 06:45:29;;;;;;;8.30;2.25;;;;;;;;;;5069619;28;20341;-87
2023/10/06 06:47:55;;;;;;;8.25;2.28;;;;;;;;;;5058642;28;20380;-87
2023/10/06 06:50:21;;;;;;;9.25;2.55;;;;;;;;;;5058440;28;20029;-87
2023/10/06 06:52:48;;;;;;;6.63;2.45;;;;;;;;;;5058905;28;20020;-85
2023/10/06 06:55:18;;;;;;;9.77;2.60;;;;;;;;;;5058695;28;20024;-85
2023/10/06 06:57:48;;;;;;;5.35;2.42;;;;;;;;;;5058517;28;20379;-86
2023/10/06 07:00:18;;;;;;;18.85;2.95;;;;;;;;;;5059278;28;20020;-85
2023/10/06 07:02:45;;;;;;;9.80;2.90;;;;;;;;;;5067511;28;20503;-85
2023/10/06 07:05:11;;;;;;;12.57;3.05;;;;;;;;;;5054130;28;20090;-86
2023/10/06 07:07:40;;;;;;;13.77;2.80;;;;;;;;;;5077390;28;20024;-86
2023/10/06 07:10:11;;;;;;;7.68;2.67;;;;;;;;;;5059255;28;20039;-86
2023/10/06 07:12:36;;;;;;;4.45;2.05;;;;;;;;;;5062820;28;20040;-86
2023/10/06 07:15:09;;;;;;;6.85;2.45;;;;;;;;;;5055022;28;20084;-84
2023/10/06 07:17:34;;;;;;;11.98;2.50;;;;;;;;;;5059472;28;20025;-87
2023/10/06 07:20:00;;;;;;;10.02;2.75;;;;;;;;;;5058001;28;20519;-86
2023/10/06 07:22:29;;;;;;;9.80;2.70;;;;;;;;;;5056899;28;20016;-86
2023/10/06 07:24:55;;;;;;;8.10;2.20;;;;;;;;;;5057446;28;20494;-86
2023/10/06 07:27:21;;;;;;;9.68;2.13;;;;;;;;;;5057820;28;20028;-86
2023/10/06 07:29:46;;;;;;;10.10;2.67;;;;;;;;;;5057788;28;20021;-86
2023/10/06 07:32:14;;;;;;;7.07;2.25;;;;;;;;;;5058873;28;20036;-86
2023/10/06 07:34:40;;;;;;;12.90;2.83;;;;;;;;;;5075780;28;20035;-87
2023/10/06 07:37:05;;;;;;;14.48;3.13;;;;;;;;;;5057516;28;20032;-86
2023/10/06 07:39:31;;;;;;;12.23;2.97;;;;;;;;;;5057884;28;20020;-86
2023/10/06 07:41:57;;;;;;;11.55;3.55;;;;;;;;;;5058038;28;20427;-88
2023/10/06 07:44:24;;;;;;;6.15;2.38;;;;;;;;;;5057772;28;20460;-89
2023/10/06 07:46:52;;;;;;;9.80;2.95;;;;;;;;;;5057419;28;20473;-89
2023/10/06 07:49:17;;;;;;;10.75;2.67;;;;;;;;;;5075636;28;20036;-89
2023/10/06 07:51:45;;;;;;;12.13;3.58;;;;;;;;;;5057654;28;20431;-88
2023/10/06 07:54:10;;;;;;;12.73;3.22;;;;;;;;;;5074928;28;20099;-89
2023/10/06 07:56:36;;;;;;;9.75;2.40;;;;;;;;;;5041926;28;20059;-89
2023/10/06 07:59:01;;;;;;;10.85;2.63;;;;;;;;;;5057247;28;20065;-88
2023/10/06 08:01:27;;;;;;;12.77;3.17;;;;;;;;;;5058761;28;20479;-89
2023/10/06 08:03:53;;;;;;;9.13;2.78;;;;;;;;;;5057185;28;20020;-90
2023/10/06 08:06:20;;;;;;;9.02;2.42;;;;;;;;;;5056843;28;20456;-89
2023/10/06 08:08:48;;;;;;;13.55;2.75;;;;;;;;;;5058327;28;20024;-89
2023/10/06 08:11:13;;;;;;;6.60;2.83;;;;;;;;;;5057632;28;20050;-91
2023/10/06 08:13:39;;;;;;;12.30;2.85;;;;;;;;;;5057621;28;20028;-92
2023/10/06 08:16:08;;;;;;;13.20;3.20;;;;;;;;;;5056109;28;20102;-93
2023/10/06 08:18:37;;;;;;;10.93;3.10;;;;;;;;;;5054240;28;20052;-93
2023/10/06 08:21:03;;;;;;;10.52;3.13;;;;;;;;;;5058251;28;20020;-94
2023/10/06 08:23:29;;;;;;;11.57;3.38;;;;;;;;;;5058134;28;20017;-94
2023/10/06 08:25:56;;;;;;;12.55;3.15;;;;;;;;;;5056850;28;20024;-94
2023/10/06 08:28:22;;;;;;;14.48;3.72;;;;;;;;;;5056802;28;20039;-93
2023/10/06 08:30:47;;;;;;;10.63;3.25;;;;;;;;;;5053260;28;20381;-96
2023/10/06 08:33:13;;;;;;;14.10;3.85;;;;;;;;;;5069809;28;20050;-94
2023/10/06 08:35:40;;;;;;;14.75;3.42;;;;;;;;;;5056706;28;20029;-94
2023/10/06 08:38:07;;;;;;;10.82;3.15;;;;;;;;;;5056004;28;20025;-94
2023/10/06 08:40:34;;;;;;;8.90;3.08;;;;;;;;;;5056781;28;20020;-94
2023/10/06 08:42:59;;;;;;;9.85;3.10;;;;;;;;;;5047232;28;20094;-94
2023/10/06 08:45:28;;;;;;;15.45;3.50;;;;;;;;;;5089475;28;20468;-90
2023/10/06 08:48:01;;;;;;;9.05;3.28;;;;;;;;;;5055099;28;20426;-92
2023/10/06 08:50:32;;;;;;;13.25;3.45;;;;;;;;;;5056118;28;20085;-92
2023/10/06 08:52:58;;;;;;;10.38;3.22;;;;;;;;;;5056258;28;20054;-92
2023/10/06 08:55:28;;;;;;;15.55;3.85;;;;;;;;;;5052364;28;20035;-92
2023/10/06 08:57:53;;;;;;;10.75;3.20;;;;;;;;;;5055496;28;20024;-93
2023/10/06 09:00:23;;;;;;;13.32;3.20;;;;;;;;;;5056418;28;20125;-94
2023/10/06 09:02:52;;;;;;;10.57;3.30;;;;;;;;;;5056161;28;20012;-94
2023/10/06 09:05:18;;;;;;;9.65;3.40;;;;;;;;;;5053190;28;20108;-94
2023/10/06 09:08:04;;;;;;;11.80;2.85;;;;;;;;;;5052840;28;20051;-95
2023/10/06 09:10:30;;;;;;;7.10;3.03;;;;;;;;;;5081053;28;20116;-94
2023/10/06 09:13:06;;;;;;;8.93;2.45;;;;;;;;;;5056504;28;20044;-93
2023/10/06 09:15:32;;;;;;;10.70;2.72;;;;;;;;;;5056659;28;20387;-95
2023/10/06 09:17:58;;;;;;;11.48;3.25;;;;;;;;;;5056154;28;20092;-94
2023/10/06 09:20:31;;;;;;;10.70;3.40;;;;;;;;;;5056374;28;20012;-95
2023/10/06 09:22:58;;;;;;;10.02;2.88;;;;;;;;;;5057957;28;20017;-94
2023/10/06 09:25:24;;;;;;;9.55;2.90;;;;;;;;;;5057954;28;20013;-95
2023/10/06 09:28:13;;;;;;;11.38;2.90;;;;;;;;;;5058281;28;20030;-95
2023/10/06 09:31:00;;;;;;;9.98;2.78;;;;;;;;;;5083151;28;20063;-91
2023/10/06 09:33:40;;;;;;;7.93;2.40;;;;;;;;;;5056165;28;20127;-91
2023/10/06 09:36:07;;;;;;;12.20;2.60;;;;;;;;;;5056592;28;20028;-91
2023/10/06 09:38:33;;;;;;;14.85;2.97;;;;;;;;;;5054509;28;20051;-91
2023/10/06 09:40:58;;;;;;;10.38;2.53;;;;;;;;;;5056152;28;20084;-92
2023/10/06 09:43:25;;;;;;;10.40;3.03;;;;;;;;;;5056247;28;20146;-91
2023/10/06 09:45:51;;;;;;;7.68;2.45;;;;;;;;;;5055862;28;20040;-90
2023/10/06 09:48:22;;;;;;;11.70;3.13;;;;;;;;;;5055247;28;20471;-91
2023/10/06 09:50:50;;;;;;;8.15;2.60;;;;;;;;;;5053600;28;20020;-91
2023/10/06 09:53:16;;;;;;;11.32;3.47;;;;;;;;;;5080722;28;20474;-91
2023/10/06 09:55:42;;;;;;;12.52;3.53;;;;;;;;;;5052589;28;20356;-91
2023/10/06 09:58:08;;;;;;;8.43;2.83;;;;;;;;;;5055673;28;20028;-91
2023/10/06 10:00:39;;;;;;;7.28;2.88;;;;;;;;;;5057195;28;20016;-91
2023/10/06 10:03:05;;;;;;;12.82;3.38;;;;;;;;;;5055441;28;20013;-92
2023/10/06 10:05:30;;;;;;;7.72;3.28;;;;;;;;;;5060858;28;20412;-91
2023/10/06 10:07:56;;;;;;;7.43;3.15;;;;;;;;;;5066523;28;20108;-90
2023/10/06 10:10:27;;;;;;;9.55;2.78;;;;;;;;;;5053658;28;20033;-89
2023/10/06 10:13:07;;;;;;;9.20;2.40;;;;;;;;;;5083635;28;20733;-90
2023/10/06 10:15:51;;;;;;;7.25;2.67;;;;;;;;;;5084290;28;20016;-90
2023/10/06 10:18:36;;;;;;;12.05;3.00;;;;;;;;;;5068830;28;20043;-91
2023/10/06 10:21:04;;;;;;;8.82;2.58;;;;;;;;;;5062243;28;20476;-90
2023/10/06 10:23:30;;;;;;;9.85;2.80;;;;;;;;;;5049871;28;20032;-90
2023/10/06 10:26:13;;;;;;;10.15;3.05;;;;;;;;;;5052677;28;20106;-91
2023/10/06 10:28:39;;;;;;;10.77;3.10;;;;;;;;;;5052765;28;20495;-91
2023/10/06 10:31:05;;;;;;;9.18;2.58;;;;;;;;;;5052678;28;20087;-89
2023/10/06 10:33:37;;;;;;;11.50;3.40;;;;;;;;;;5053328;28;20031;-91
2023/10/06 10:36:02;;;;;;;;;;;;;;;;;;5055940;28;20090;-90
2023/10/06 10:38:27;;;;;;;16.40;3.10;;;;;;;;;;5075404;28;20360;-90
2023/10/06 10:40:53;;;;;;;12.60;2.85;;;;;;;;;;5059177;28;20032;-91
2023/10/06 10:43:20;;;;;;;10.20;2.70;;;;;;;;;;5077875;28;20048;-91
2023/10/06 10:45:47;;;;;;;10.35;3.30;;;;;;;;;;5077525;28;20024;-90
2023/10/06 10:48:17;;;;;;;9.95;2.85;;;;;;;;;;5069455;28;20024;-90
2023/10/06 10:51:06;;;;;;;12.00;3.50;;;;;;;;;;5058368;28;20031;-91
2023/10/06 10:53:34;;;;;;;10.40;2.58;;;;;;;;;;5068397;28;20020;-90
2023/10/06 10:56:01;;;;;;;6.93;2.60;;;;;;;;;;5058183;28;20017;-91
2023/10/06 10:58:42;;;;;;;9.95;2.92;;;;;;;;;;5048489;28;20028;-90
2023/10/06 11:01:36;;;;;;;11.23;2.53;;;;;;;;;;5086686;28;20042;-89
2023/10/06 11:06:55;;;;;;;;;;;;;;;;;;5067461;28;20435;-90
2023/10/06 11:09:57;;;;;;;9.20;2.75;;;;;;;;;;5076264;28;19927;-91
2023/10/06 11:12:16;;;;;;;10.15;2.80;;;;;;;;;;5070633;28;20040;-91
2023/10/06 11:14:41;;;;;;;9.23;3.00;;;;;;;;;;5062270;28;20076;-90
2023/10/06 11:17:07;;;;;;;9.93;2.83;;;;;;;;;;5057806;28;20117;-91
2023/10/06 11:19:33;;;;;;;7.68;2.70;;;;;;;;;;5057984;28;20074;-90
2023/10/06 11:22:11;;;;;;;9.15;2.72;;;;;;;;;;5057986;28;20527;-90
2023/10/06 11:24:39;;;;;;;10.15;3.95;;;;;;;;;;5055151;28;20017;-90
2023/10/06 11:27:11;;;;;;;11.70;2.92;;;;;;;;;;5058216;28;20413;-91
2023/10/06 11:29:39;;;;;;;;;;;;;;;;;;5078674;28;20056;-91
2023/10/06 11:32:04;;;;;;;10.07;3.00;;;;;;;;;;5058682;28;19958;-93
2023/10/06 11:34:30;;;;;;;9.15;3.60;;;;;;;;;;5059575;28;20029;-93
2023/10/06 11:36:56;;;;;;;8.98;2.65;;;;;;;;;;5059646;28;20035;-93
2023/10/06 11:39:23;;;;;;;11.50;2.90;;;;;;;;;;5060151;28;20031;-92
2023/10/06 11:41:50;;;;;;;12.68;3.00;;;;;;;;;;5060701;28;20017;-92
2023/10/06 11:44:15;;;;;;;9.82;2.55;;;;;;;;;;5060416;28;20017;-92
2023/10/06 11:46:56;;;;;;;10.00;2.50;;;;;;;;;;5059298;28;20016;-92
2023/10/06 11:49:23;;;;;;;7.75;2.30;;;;;;;;;;5060414;28;20081;-93
2023/10/06 11:51:51;;;;;;;10.52;2.60;;;;;;;;;;5059125;28;20029;-92
2023/10/06 11:54:16;;;;;;;13.13;2.60;;;;;;;;;;5058016;28;20020;-92
2023/10/06 11:56:52;;;;;;;9.48;2.10;;;;;;;;;;5054652;28;20017;-92
2023/10/06 11:59:22;;;;;;;14.85;2.50;;;;;;;;;;5058017;28;20107;-93
2023/10/06 12:01:47;;;;;;;6.07;2.10;;;;;;;;;;5057521;28;20814;-92
2023/10/06 12:04:23;;;;;;;12.02;2.47;;;;;;;;;;5058857;28;20020;-92
2023/10/06 12:06:50;;;;;;;10.15;2.72;;;;;;;;;;5057415;28;20031;-92
2023/10/06 12:09:25;;;;;;;12.15;2.28;;;;;;;;;;5057965;28;20025;-92
2023/10/06 12:11:55;;;;;;;6.53;2.55;;;;;;;;;;5057507;28;20088;-92
2023/10/06 12:14:20;;;;;;;7.85;2.28;;;;;;;;;;5058557;28;20486;-92
2023/10/06 12:16:46;;;;;;;5.22;1.77;;;;;;;;;;5058543;28;20012;-92
2023/10/06 12:19:11;;;;;;;7.35;2.30;;;;;;;;;;5057979;28;20070;-91
2023/10/06 12:21:37;;;;;;;7.65;2.35;;;;;;;;;;5056758;28;20035;-94
2023/10/06 12:24:02;;;;;;;11.48;2.45;;;;;;;;;;5057327;28;20016;-93
2023/10/06 12:26:28;;;;;;;6.72;2.28;;;;;;;;;;5055831;28;20031;-93
2023/10/06 12:28:54;;;;;;;8.68;2.30;;;;;;;;;;5058705;28;20020;-92
2023/10/06 12:31:19;;;;;;;13.30;2.13;;;;;;;;;;5059277;28;20031;-93
2023/10/06 12:33:45;;;;;;;6.68;1.98;;;;;;;;;;5057752;28;20124;-92
2023/10/06 12:36:12;;;;;;;7.95;2.20;;;;;;;;;;5055639;28;20047;-92
2023/10/06 12:38:39;;;;;;;7.93;2.15;;;;;;;;;;5057097;28;20034;-92
2023/10/06 12:41:09;;;;;;;8.32;2.13;;;;;;;;;;5058436;28;20443;-92
2023/10/06 12:43:35;;;;;;;8.40;2.50;;;;;;;;;;5056917;28;20017;-91
2023/10/06 12:46:04;;;;;;;4.88;2.05;;;;;;;;;;5058337;28;20082;-93
2023/10/06 12:48:30;;;;;;;5.78;2.25;;;;;;;;;;5057816;28;20037;-94
2023/10/06 12:50:56;;;;;;;8.40;1.85;;;;;;;;;;5058191;28;20353;-94
2023/10/06 12:53:21;;;;;;;7.70;2.00;;;;;;;;;;5059311;28;20029;-93
2023/10/06 12:55:56;;;;;;;9.90;2.15;;;;;;;;;;5057061;28;20074;-92
2023/10/06 12:58:22;;;;;;;10.48;2.13;;;;;;;;;;5056697;28;20024;-94
2023/10/06 13:00:47;;;;;;;7.65;2.95;;;;;;;;;;5056643;28;20073;-94
2023/10/06 13:03:15;;;;;;;4.10;1.98;;;;;;;;;;5055929;28;20196;-93
2023/10/06 13:05:45;;;;;;;7.13;2.20;;;;;;;;;;5056682;28;20020;-92
2023/10/06 13:08:17;;;;;;;7.45;2.03;;;;;;;;;;5046323;28;20021;-94
2023/10/06 13:10:42;;;;;;;;;;;;;;;;;;5056709;28;20027;-93
2023/10/06 13:13:07;;;;;;;8.05;2.08;;;;;;;;;;5056057;28;20086;-92
2023/10/06 13:15:32;;;;;;;6.13;1.98;;;;;;;;;;5055611;28;20273;-92
2023/10/06 13:17:58;;;;;;;9.50;2.22;;;;;;;;;;5056312;28;20029;-92
2023/10/06 13:20:26;;;;;;;12.93;2.35;;;;;;;;;;5056320;28;20384;-93
2023/10/06 13:22:51;;;;;;;8.43;1.85;;;;;;;;;;5055797;28;20145;-92
2023/10/06 13:25:17;;;;;;;8.38;2.30;;;;;;;;;;5056119;28;20012;-93
2023/10/06 13:27:47;;;;;;;7.63;1.70;;;;;;;;;;5055578;28;20029;-93
2023/10/06 13:30:13;;;;;;;10.90;2.10;;;;;;;;;;5055864;28;20034;-93
2023/10/06 13:32:39;;;;;;;6.45;2.00;;;;;;;;;;5055411;28;20096;-92
2023/10/06 13:35:05;;;;;;;6.80;1.60;;;;;;;;;;5055634;28;20017;-92
2023/10/06 13:37:32;;;;;;;5.40;1.90;;;;;;;;;;5055864;28;20104;-93
2023/10/06 13:39:57;;;;;;;7.80;2.10;;;;;;;;;;5055904;28;20088;-93
2023/10/06 13:42:22;;;;;;;7.63;1.70;;;;;;;;;;5055044;28;20063;-93
2023/10/06 13:44:50;;;;;;;8.57;2.42;;;;;;;;;;5055490;28;20012;-92
2023/10/06 13:47:17;;;;;;;5.38;1.88;;;;;;;;;;5042030;28;20021;-93
2023/10/06 13:49:42;;;;;;;9.60;1.90;;;;;;;;;;5055890;28;20042;-94
2023/10/06 13:52:08;;;;;;;10.15;1.98;;;;;;;;;;5054831;28;20206;-93
2023/10/06 13:54:33;;;;;;;8.80;2.08;;;;;;;;;;5055306;28;20016;-94
2023/10/06 13:56:59;;;;;;;10.25;2.63;;;;;;;;;;5053772;28;20430;-90
2023/10/06 13:59:24;;;;;;;9.75;1.90;;;;;;;;;;5055865;28;20378;-93
2023/10/06 14:01:50;;;;;;;6.75;2.28;;;;;;;;;;5056764;28;20025;-91
2023/10/06 14:04:15;;;;;;;5.80;1.65;;;;;;;;;;5055369;28;20033;-91
2023/10/06 14:06:44;;;;;;;10.40;1.83;;;;;;;;;;5055449;28;20016;-92
2023/10/06 14:09:12;;;;;;;7.05;1.70;;;;;;;;;;5055720;28;20464;-91
2023/10/06 14:11:42;;;;;;;8.45;1.92;;;;;;;;;;5072986;28;20130;-92
2023/10/06 14:14:34;;;;;;;3.45;1.58;;;;;;;;;;5058990;28;20448;-89
2023/10/06 14:16:54;;;;;;;6.90;1.80;;;;;;;;;;5075041;28;20032;-92
2023/10/06 14:19:19;;;;;;;13.15;2.35;;;;;;;;;;5059134;28;20482;-91
2023/10/06 14:21:50;;;;;;;4.82;1.95;;;;;;;;;;5059377;28;20020;-91
2023/10/06 14:24:16;;;;;;;7.25;1.95;;;;;;;;;;5076983;28;20047;-91
2023/10/06 14:26:42;;;;;;;11.77;1.75;;;;;;;;;;5058218;28;20066;-91
2023/10/06 14:29:08;;;;;;;7.35;1.98;;;;;;;;;;5059193;28;20036;-91
2023/10/06 14:31:48;;;;;;;9.55;2.47;;;;;;;;;;5058929;28;20067;-91
2023/10/06 14:36:59;;;;;;;13.63;2.47;;;;;;;;;;5070652;28;20506;-92
2023/10/06 14:47:37;;;;;;;7.07;1.90;;;;;;;;;;5076541;28;20022;-92
2023/10/06 14:50:04;;;;;;;8.43;2.08;;;;;;;;;;5058440;28;20026;-89
2023/10/06 14:52:31;;;;;;;7.38;1.70;;;;;;;;;;5075886;28;20028;-93
2023/10/06 14:54:56;;;;;;;10.68;2.25;;;;;;;;;;5057966;28;20024;-89
2023/10/06 14:57:26;;;;;;;6.63;2.15;;;;;;;;;;5057157;28;20028;-89
2023/10/06 14:59:55;;;;;;;7.80;2.28;;;;;;;;;;5075442;28;20020;-90
2023/10/06 15:02:22;;;;;;;6.07;2.13;;;;;;;;;;5058207;28;20487;-90
2023/10/06 15:04:47;;;;;;;11.23;2.30;;;;;;;;;;5059830;28;20021;-89
2023/10/06 15:07:14;;;;;;;6.97;2.08;;;;;;;;;;5077114;28;20028;-89
2023/10/06 15:09:39;;;;;;;10.45;2.38;;;;;;;;;;5057861;28;20332;-88
2023/10/06 15:12:05;;;;;;;6.15;2.13;;;;;;;;;;5057926;28;20029;-89
2023/10/06 15:14:30;;;;;;;5.90;2.35;;;;;;;;;;5055331;28;20024;-87
2023/10/06 15:16:59;;;;;;;9.15;2.17;;;;;;;;;;5050285;28;20061;-86